sensor_id;sensor_type;location;lat;lon;timestamp;P1;durP1;ratioP1;P2;durP2;ratioP2
37069;SDS011;22984;48.862;9.320;2022-08-18T00:02:06;4.55;;;3.92;;
37069;SDS011;22984;48.862;9.320;2022-08-18T00:04:32;4.50;;;4.10;;
37069;SDS011;22984;48.862;9.320;2022-08-18T00:07:03;4.65;;;4.35;;
37069;SDS011;22984;48.862;9.320;2022-08-18T00:09:29;5.18;;;4.53;;
37069;SDS011;22984;48.862;9.320;2022-08-18T00:11:55;5.15;;;4.75;;
37069;SDS011;22984;48.862;9.320;2022-08-18T00:14:21;5.13;;;4.63;;
37069;SDS011;22984;48.862;9.320;2022-08-18T00:16:48;4.93;;;4.60;;
37069;SDS011;22984;48.862;9.320;2022-08-18T00:19:15;4.97;;;4.57;;
37069;SDS011;22984;48.862;9.320;2022-08-18T00:21:41;4.75;;;4.40;;
37069;SDS011;22984;48.862;9.320;2022-08-18T00:24:07;4.65;;;4.20;;
37069;SDS011;22984;48.862;9.320;2022-08-18T00:26:33;4.30;;;4.00;;
37069;SDS011;22984;48.862;9.320;2022-08-18T00:28:59;4.93;;;4.53;;
37069;SDS011;22984;48.862;9.320;2022-08-18T00:31:25;7.47;;;4.90;;
37069;SDS011;22984;48.862;9.320;2022-08-18T00:33:51;4.72;;;4.32;;
37069;SDS011;22984;48.862;9.320;2022-08-18T00:36:17;5.00;;;4.50;;
37069;SDS011;22984;48.862;9.320;2022-08-18T00:38:43;4.38;;;4.07;;
37069;SDS011;22984;48.862;9.320;2022-08-18T00:41:09;4.53;;;4.22;;
37069;SDS011;22984;48.862;9.320;2022-08-18T00:43:43;5.78;;;4.65;;
37069;SDS011;22984;48.862;9.320;2022-08-18T00:46:16;4.75;;;4.35;;
37069;SDS011;22984;48.862;9.320;2022-08-18T00:48:43;4.80;;;4.47;;
37069;SDS011;22984;48.862;9.320;2022-08-18T00:51:11;5.25;;;4.47;;
37069;SDS011;22984;48.862;9.320;2022-08-18T00:53:46;5.47;;;5.00;;
37069;SDS011;22984;48.862;9.320;2022-08-18T00:56:15;5.18;;;4.68;;
37069;SDS011;22984;48.862;9.320;2022-08-18T00:58:45;5.40;;;4.43;;
37069;SDS011;22984;48.862;9.320;2022-08-18T01:01:14;4.55;;;4.15;;
37069;SDS011;22984;48.862;9.320;2022-08-18T01:03:41;4.70;;;4.30;;
37069;SDS011;22984;48.862;9.320;2022-08-18T01:06:14;4.72;;;4.32;;
37069;SDS011;22984;48.862;9.320;2022-08-18T01:08:41;5.00;;;4.60;;
37069;SDS011;22984;48.862;9.320;2022-08-18T01:11:07;5.22;;;4.78;;
37069;SDS011;22984;48.862;9.320;2022-08-18T01:13:34;5.10;;;4.60;;
37069;SDS011;22984;48.862;9.320;2022-08-18T01:16:02;4.80;;;4.40;;
37069;SDS011;22984;48.862;9.320;2022-08-18T01:18:49;4.30;;;4.00;;
37069;SDS011;22984;48.862;9.320;2022-08-18T01:21:35;3.67;;;3.38;;
37069;SDS011;22984;48.862;9.320;2022-08-18T01:24:15;4.55;;;3.95;;
37069;SDS011;22984;48.862;9.320;2022-08-18T01:26:41;4.13;;;3.83;;
37069;SDS011;22984;48.862;9.320;2022-08-18T01:29:13;4.10;;;3.70;;
37069;SDS011;22984;48.862;9.320;2022-08-18T01:31:41;4.90;;;4.50;;
37069;SDS011;22984;48.862;9.320;2022-08-18T01:34:14;5.22;;;4.63;;
37069;SDS011;22984;48.862;9.320;2022-08-18T01:36:40;4.18;;;3.97;;
37069;SDS011;22984;48.862;9.320;2022-08-18T01:39:07;4.82;;;4.43;;
37069;SDS011;22984;48.862;9.320;2022-08-18T01:41:34;4.97;;;4.43;;
37069;SDS011;22984;48.862;9.320;2022-08-18T01:44:00;5.82;;;5.32;;
37069;SDS011;22984;48.862;9.320;2022-08-18T01:46:28;4.75;;;4.25;;
37069;SDS011;22984;48.862;9.320;2022-08-18T01:48:55;4.93;;;4.53;;
37069;SDS011;22984;48.862;9.320;2022-08-18T01:51:25;5.80;;;5.30;;
37069;SDS011;22984;48.862;9.320;2022-08-18T01:53:53;6.75;;;5.05;;
37069;SDS011;22984;48.862;9.320;2022-08-18T01:56:19;5.50;;;5.00;;
37069;SDS011;22984;48.862;9.320;2022-08-18T01:58:45;5.22;;;4.82;;
37069;SDS011;22984;48.862;9.320;2022-08-18T02:01:12;5.55;;;5.05;;
37069;SDS011;22984;48.862;9.320;2022-08-18T02:03:40;5.38;;;4.88;;
37069;SDS011;22984;48.862;9.320;2022-08-18T02:06:08;5.53;;;5.03;;
37069;SDS011;22984;48.862;9.320;2022-08-18T02:08:35;5.57;;;5.07;;
37069;SDS011;22984;48.862;9.320;2022-08-18T02:11:01;5.60;;;5.10;;
37069;SDS011;22984;48.862;9.320;2022-08-18T02:13:27;5.35;;;4.43;;
37069;SDS011;22984;48.862;9.320;2022-08-18T02:15:54;5.80;;;5.30;;
37069;SDS011;22984;48.862;9.320;2022-08-18T02:18:21;5.35;;;4.57;;
37069;SDS011;22984;48.862;9.320;2022-08-18T02:20:47;5.43;;;4.93;;
37069;SDS011;22984;48.862;9.320;2022-08-18T02:23:13;5.45;;;4.95;;
37069;SDS011;22984;48.862;9.320;2022-08-18T02:25:43;5.80;;;5.28;;
37069;SDS011;22984;48.862;9.320;2022-08-18T02:28:09;6.20;;;5.60;;
37069;SDS011;22984;48.862;9.320;2022-08-18T02:30:35;6.57;;;5.97;;
37069;SDS011;22984;48.862;9.320;2022-08-18T02:33:05;7.18;;;5.63;;
37069;SDS011;22984;48.862;9.320;2022-08-18T02:35:31;6.32;;;5.82;;
37069;SDS011;22984;48.862;9.320;2022-08-18T02:37:59;6.53;;;5.93;;
37069;SDS011;22984;48.862;9.320;2022-08-18T02:40:25;5.38;;;4.95;;
37069;SDS011;22984;48.862;9.320;2022-08-18T02:42:51;5.45;;;4.97;;
37069;SDS011;22984;48.862;9.320;2022-08-18T02:45:18;6.03;;;5.47;;
37069;SDS011;22984;48.862;9.320;2022-08-18T02:47:44;5.80;;;5.30;;
37069;SDS011;22984;48.862;9.320;2022-08-18T02:50:11;6.35;;;5.82;;
37069;SDS011;22984;48.862;9.320;2022-08-18T02:52:37;6.25;;;5.65;;
37069;SDS011;22984;48.862;9.320;2022-08-18T02:55:04;7.13;;;5.70;;
37069;SDS011;22984;48.862;9.320;2022-08-18T02:57:30;5.95;;;5.22;;
37069;SDS011;22984;48.862;9.320;2022-08-18T02:59:56;6.38;;;5.28;;
37069;SDS011;22984;48.862;9.320;2022-08-18T03:02:22;5.72;;;5.22;;
37069;SDS011;22984;48.862;9.320;2022-08-18T03:04:49;6.40;;;5.82;;
37069;SDS011;22984;48.862;9.320;2022-08-18T03:07:15;5.93;;;5.43;;
37069;SDS011;22984;48.862;9.320;2022-08-18T03:09:41;5.93;;;5.30;;
37069;SDS011;22984;48.862;9.320;2022-08-18T03:12:08;6.15;;;5.65;;
37069;SDS011;22984;48.862;9.320;2022-08-18T03:14:35;6.73;;;6.13;;
37069;SDS011;22984;48.862;9.320;2022-08-18T03:17:05;5.57;;;5.07;;
37069;SDS011;22984;48.862;9.320;2022-08-18T03:19:32;6.05;;;5.45;;
37069;SDS011;22984;48.862;9.320;2022-08-18T03:21:59;6.47;;;5.55;;
37069;SDS011;22984;48.862;9.320;2022-08-18T03:24:26;5.82;;;5.32;;
37069;SDS011;22984;48.862;9.320;2022-08-18T03:26:52;6.65;;;6.15;;
37069;SDS011;22984;48.862;9.320;2022-08-18T03:29:21;8.30;;;5.53;;
37069;SDS011;22984;48.862;9.320;2022-08-18T03:31:47;6.15;;;5.55;;
37069;SDS011;22984;48.862;9.320;2022-08-18T03:34:13;6.45;;;5.85;;
37069;SDS011;22984;48.862;9.320;2022-08-18T03:36:39;6.30;;;5.70;;
37069;SDS011;22984;48.862;9.320;2022-08-18T03:39:07;6.50;;;5.57;;
37069;SDS011;22984;48.862;9.320;2022-08-18T03:41:35;6.00;;;5.37;;
37069;SDS011;22984;48.862;9.320;2022-08-18T03:44:02;6.68;;;6.13;;
37069;SDS011;22984;48.862;9.320;2022-08-18T03:46:28;6.13;;;5.63;;
37069;SDS011;22984;48.862;9.320;2022-08-18T03:48:55;6.45;;;5.88;;
37069;SDS011;22984;48.862;9.320;2022-08-18T03:51:22;6.75;;;5.47;;
37069;SDS011;22984;48.862;9.320;2022-08-18T03:53:50;6.60;;;5.85;;
37069;SDS011;22984;48.862;9.320;2022-08-18T03:56:18;7.25;;;5.38;;
37069;SDS011;22984;48.862;9.320;2022-08-18T03:58:46;5.97;;;5.38;;
37069;SDS011;22984;48.862;9.320;2022-08-18T04:01:14;5.88;;;5.38;;
37069;SDS011;22984;48.862;9.320;2022-08-18T04:03:46;5.43;;;4.93;;
37069;SDS011;22984;48.862;9.320;2022-08-18T04:06:13;6.38;;;5.07;;
37069;SDS011;22984;48.862;9.320;2022-08-18T04:08:40;6.18;;;5.65;;
37069;SDS011;22984;48.862;9.320;2022-08-18T04:11:06;8.07;;;5.40;;
37069;SDS011;22984;48.862;9.320;2022-08-18T04:13:32;7.30;;;5.67;;
37069;SDS011;22984;48.862;9.320;2022-08-18T04:16:01;6.00;;;5.50;;
37069;SDS011;22984;48.862;9.320;2022-08-18T04:18:27;6.25;;;5.65;;
37069;SDS011;22984;48.862;9.320;2022-08-18T04:20:53;6.72;;;6.13;;
37069;SDS011;22984;48.862;9.320;2022-08-18T04:23:19;7.00;;;6.40;;
37069;SDS011;22984;48.862;9.320;2022-08-18T04:25:54;7.43;;;6.72;;
37069;SDS011;22984;48.862;9.320;2022-08-18T04:28:20;8.90;;;6.15;;
37069;SDS011;22984;48.862;9.320;2022-08-18T04:30:46;6.40;;;5.85;;
37069;SDS011;22984;48.862;9.320;2022-08-18T04:33:12;9.02;;;7.30;;
37069;SDS011;22984;48.862;9.320;2022-08-18T04:35:38;7.63;;;6.40;;
37069;SDS011;22984;48.862;9.320;2022-08-18T04:38:04;7.88;;;7.13;;
37069;SDS011;22984;48.862;9.320;2022-08-18T04:40:32;8.15;;;6.85;;
37069;SDS011;22984;48.862;9.320;2022-08-18T04:42:58;7.10;;;6.50;;
37069;SDS011;22984;48.862;9.320;2022-08-18T04:45:26;8.23;;;7.43;;
37069;SDS011;22984;48.862;9.320;2022-08-18T04:47:52;10.73;;;7.72;;
37069;SDS011;22984;48.862;9.320;2022-08-18T04:50:19;8.17;;;7.37;;
37069;SDS011;22984;48.862;9.320;2022-08-18T04:52:45;10.02;;;8.10;;
37069;SDS011;22984;48.862;9.320;2022-08-18T04:55:29;8.07;;;7.27;;
37069;SDS011;22984;48.862;9.320;2022-08-18T04:57:56;9.03;;;7.27;;
37069;SDS011;22984;48.862;9.320;2022-08-18T05:00:23;8.43;;;7.57;;
37069;SDS011;22984;48.862;9.320;2022-08-18T05:02:49;9.07;;;6.65;;
37069;SDS011;22984;48.862;9.320;2022-08-18T05:05:18;6.18;;;5.68;;
37069;SDS011;22984;48.862;9.320;2022-08-18T05:07:45;6.97;;;5.60;;
37069;SDS011;22984;48.862;9.320;2022-08-18T05:10:11;5.78;;;5.28;;
37069;SDS011;22984;48.862;9.320;2022-08-18T05:12:38;6.18;;;5.57;;
37069;SDS011;22984;48.862;9.320;2022-08-18T05:15:06;5.45;;;4.75;;
37069;SDS011;22984;48.862;9.320;2022-08-18T05:17:32;5.53;;;4.97;;
37069;SDS011;22984;48.862;9.320;2022-08-18T05:20:03;5.30;;;4.80;;
37069;SDS011;22984;48.862;9.320;2022-08-18T05:22:30;4.95;;;4.55;;
37069;SDS011;22984;48.862;9.320;2022-08-18T05:25:00;4.80;;;4.40;;
37069;SDS011;22984;48.862;9.320;2022-08-18T05:27:34;5.25;;;4.85;;
37069;SDS011;22984;48.862;9.320;2022-08-18T05:30:00;4.20;;;3.90;;
37069;SDS011;22984;48.862;9.320;2022-08-18T05:32:27;4.65;;;4.25;;
37069;SDS011;22984;48.862;9.320;2022-08-18T05:34:55;5.38;;;4.88;;
37069;SDS011;22984;48.862;9.320;2022-08-18T05:37:27;4.57;;;4.18;;
37069;SDS011;22984;48.862;9.320;2022-08-18T05:40:00;4.20;;;3.78;;
37069;SDS011;22984;48.862;9.320;2022-08-18T05:42:27;3.95;;;3.72;;
37069;SDS011;22984;48.862;9.320;2022-08-18T05:44:55;4.35;;;4.05;;
37069;SDS011;22984;48.862;9.320;2022-08-18T05:47:23;4.55;;;4.13;;
37069;SDS011;22984;48.862;9.320;2022-08-18T05:49:50;4.15;;;3.85;;
37069;SDS011;22984;48.862;9.320;2022-08-18T05:52:18;4.23;;;3.93;;
37069;SDS011;22984;48.862;9.320;2022-08-18T05:54:50;4.07;;;3.78;;
37069;SDS011;22984;48.862;9.320;2022-08-18T05:57:40;4.38;;;3.97;;
37069;SDS011;22984;48.862;9.320;2022-08-18T06:00:08;4.60;;;4.00;;
37069;SDS011;22984;48.862;9.320;2022-08-18T06:07:54;5.03;;;4.57;;
37069;SDS011;22984;48.862;9.320;2022-08-18T06:10:21;5.70;;;4.17;;
37069;SDS011;22984;48.862;9.320;2022-08-18T06:12:49;4.50;;;4.10;;
37069;SDS011;22984;48.862;9.320;2022-08-18T06:15:19;4.60;;;4.30;;
37069;SDS011;22984;48.862;9.320;2022-08-18T06:20:27;4.95;;;4.25;;
37069;SDS011;22984;48.862;9.320;2022-08-18T06:25:47;5.07;;;4.57;;
37069;SDS011;22984;48.862;9.320;2022-08-18T06:28:16;5.63;;;5.05;;
37069;SDS011;22984;48.862;9.320;2022-08-18T06:35:58;4.38;;;4.07;;
37069;SDS011;22984;48.862;9.320;2022-08-18T06:38:37;5.22;;;4.68;;
37069;SDS011;22984;48.862;9.320;2022-08-18T06:41:11;5.30;;;4.65;;
37069;SDS011;22984;48.862;9.320;2022-08-18T06:43:38;5.15;;;4.65;;
37069;SDS011;22984;48.862;9.320;2022-08-18T06:46:11;4.65;;;4.25;;
37069;SDS011;22984;48.862;9.320;2022-08-18T06:48:48;5.13;;;4.72;;
37069;SDS011;22984;48.862;9.320;2022-08-18T06:51:17;4.60;;;4.30;;
37069;SDS011;22984;48.862;9.320;2022-08-18T06:53:48;5.70;;;4.70;;
37069;SDS011;22984;48.862;9.320;2022-08-18T06:56:21;6.65;;;4.70;;
37069;SDS011;22984;48.862;9.320;2022-08-18T06:58:47;5.68;;;5.18;;
37069;SDS011;22984;48.862;9.320;2022-08-18T07:01:14;5.30;;;4.90;;
37069;SDS011;22984;48.862;9.320;2022-08-18T07:03:43;5.05;;;4.65;;
37069;SDS011;22984;48.862;9.320;2022-08-18T07:08:45;4.95;;;3.92;;
37069;SDS011;22984;48.862;9.320;2022-08-18T07:16:38;4.65;;;4.32;;
37069;SDS011;22984;48.862;9.320;2022-08-18T07:19:07;5.30;;;4.80;;
37069;SDS011;22984;48.862;9.320;2022-08-18T07:21:35;5.57;;;5.07;;
37069;SDS011;22984;48.862;9.320;2022-08-18T07:26:31;5.00;;;4.50;;
37069;SDS011;22984;48.862;9.320;2022-08-18T07:29:17;4.97;;;4.53;;
37069;SDS011;22984;48.862;9.320;2022-08-18T07:31:47;4.72;;;4.43;;
37069;SDS011;22984;48.862;9.320;2022-08-18T07:34:26;4.77;;;4.20;;
37069;SDS011;22984;48.862;9.320;2022-08-18T07:37:07;4.30;;;3.88;;
37069;SDS011;22984;48.862;9.320;2022-08-18T07:39:37;4.50;;;4.20;;
37069;SDS011;22984;48.862;9.320;2022-08-18T07:42:09;4.22;;;3.90;;
37069;SDS011;22984;48.862;9.320;2022-08-18T07:49:37;5.00;;;4.50;;
37069;SDS011;22984;48.862;9.320;2022-08-18T07:52:47;4.60;;;4.20;;
37069;SDS011;22984;48.862;9.320;2022-08-18T07:54:58;5.07;;;4.68;;
37069;SDS011;22984;48.862;9.320;2022-08-18T08:02:34;5.18;;;4.78;;
37069;SDS011;22984;48.862;9.320;2022-08-18T08:10:29;4.68;;;4.28;;
37069;SDS011;22984;48.862;9.320;2022-08-18T08:13:07;4.70;;;4.28;;
37069;SDS011;22984;48.862;9.320;2022-08-18T08:18:08;4.55;;;4.15;;
37069;SDS011;22984;48.862;9.320;2022-08-18T08:20:44;4.33;;;4.03;;
37069;SDS011;22984;48.862;9.320;2022-08-18T08:31:33;4.70;;;4.30;;
37069;SDS011;22984;48.862;9.320;2022-08-18T08:34:08;4.40;;;4.00;;
37069;SDS011;22984;48.862;9.320;2022-08-18T08:36:38;4.53;;;4.13;;
37069;SDS011;22984;48.862;9.320;2022-08-18T08:39:18;4.38;;;4.07;;
37069;SDS011;22984;48.862;9.320;2022-08-18T08:41:47;4.40;;;4.00;;
37069;SDS011;22984;48.862;9.320;2022-08-18T08:44:22;4.40;;;4.00;;
37069;SDS011;22984;48.862;9.320;2022-08-18T08:46:58;4.00;;;3.70;;
37069;SDS011;22984;48.862;9.320;2022-08-18T08:49:45;4.20;;;3.90;;
37069;SDS011;22984;48.862;9.320;2022-08-18T08:52:16;3.72;;;3.42;;
37069;SDS011;22984;48.862;9.320;2022-08-18T08:54:49;3.42;;;3.10;;
37069;SDS011;22984;48.862;9.320;2022-08-18T08:57:18;3.50;;;3.30;;
37069;SDS011;22984;48.862;9.320;2022-08-18T08:59:45;3.42;;;3.22;;
37069;SDS011;22984;48.862;9.320;2022-08-18T09:05:10;3.20;;;3.00;;
37069;SDS011;22984;48.862;9.320;2022-08-18T09:15:42;3.20;;;3.00;;
37069;SDS011;22984;48.862;9.320;2022-08-18T09:28:12;4.68;;;4.28;;
37069;SDS011;22984;48.862;9.320;2022-08-18T09:30:47;5.30;;;4.90;;
37069;SDS011;22984;48.862;9.320;2022-08-18T09:36:01;4.18;;;3.88;;
37069;SDS011;22984;48.862;9.320;2022-08-18T09:38:30;5.10;;;4.60;;
37069;SDS011;22984;48.862;9.320;2022-08-18T09:41:18;4.53;;;4.23;;
37069;SDS011;22984;48.862;9.320;2022-08-18T09:51:48;4.40;;;4.10;;
37069;SDS011;22984;48.862;9.320;2022-08-18T09:54:21;4.20;;;3.88;;
37069;SDS011;22984;48.862;9.320;2022-08-18T10:02:00;4.95;;;4.55;;
37069;SDS011;22984;48.862;9.320;2022-08-18T10:04:34;5.05;;;4.65;;
37069;SDS011;22984;48.862;9.320;2022-08-18T10:19:47;4.70;;;4.40;;
37069;SDS011;22984;48.862;9.320;2022-08-18T10:22:39;4.80;;;4.40;;
37069;SDS011;22984;48.862;9.320;2022-08-18T10:25:06;5.28;;;4.88;;
37069;SDS011;22984;48.862;9.320;2022-08-18T10:30:42;4.57;;;4.32;;
37069;SDS011;22984;48.862;9.320;2022-08-18T10:32:55;4.68;;;4.38;;
37069;SDS011;22984;48.862;9.320;2022-08-18T10:37:53;4.55;;;4.35;;
37069;SDS011;22984;48.862;9.320;2022-08-18T10:40:20;4.80;;;4.57;;
37069;SDS011;22984;48.862;9.320;2022-08-18T10:45:25;5.03;;;4.72;;
37069;SDS011;22984;48.862;9.320;2022-08-18T10:48:06;5.03;;;4.63;;
37069;SDS011;22984;48.862;9.320;2022-08-18T10:50:37;4.70;;;4.47;;
37069;SDS011;22984;48.862;9.320;2022-08-18T10:55:51;4.97;;;4.68;;
37069;SDS011;22984;48.862;9.320;2022-08-18T11:03:39;4.82;;;4.43;;
37069;SDS011;22984;48.862;9.320;2022-08-18T11:06:09;5.85;;;4.35;;
37069;SDS011;22984;48.862;9.320;2022-08-18T11:08:43;4.68;;;4.35;;
37069;SDS011;22984;48.862;9.320;2022-08-18T11:11:11;4.80;;;4.60;;
37069;SDS011;22984;48.862;9.320;2022-08-18T11:13:46;5.53;;;5.15;;
37069;SDS011;22984;48.862;9.320;2022-08-18T11:18:43;4.70;;;4.40;;
37069;SDS011;22984;48.862;9.320;2022-08-18T11:26:31;6.03;;;5.63;;
37069;SDS011;22984;48.862;9.320;2022-08-18T11:28:58;5.28;;;4.97;;
37069;SDS011;22984;48.862;9.320;2022-08-18T11:31:24;4.75;;;4.45;;
37069;SDS011;22984;48.862;9.320;2022-08-18T11:33:51;5.50;;;5.13;;
37069;SDS011;22984;48.862;9.320;2022-08-18T11:36:17;5.38;;;5.07;;
37069;SDS011;22984;48.862;9.320;2022-08-18T11:38:54;4.40;;;4.18;;
37069;SDS011;22984;48.862;9.320;2022-08-18T11:41:24;5.13;;;4.82;;
37069;SDS011;22984;48.862;9.320;2022-08-18T11:43:57;5.20;;;4.80;;
37069;SDS011;22984;48.862;9.320;2022-08-18T11:48:53;4.80;;;4.50;;
37069;SDS011;22984;48.862;9.320;2022-08-18T11:56:16;5.00;;;4.70;;
37069;SDS011;22984;48.862;9.320;2022-08-18T12:03:56;4.00;;;3.80;;
37069;SDS011;22984;48.862;9.320;2022-08-18T12:09:35;4.47;;;4.18;;
37069;SDS011;22984;48.862;9.320;2022-08-18T12:11:48;4.10;;;3.90;;
37069;SDS011;22984;48.862;9.320;2022-08-18T12:14:18;4.55;;;4.35;;
37069;SDS011;22984;48.862;9.320;2022-08-18T12:16:45;4.68;;;4.38;;
37069;SDS011;22984;48.862;9.320;2022-08-18T12:19:13;4.23;;;3.97;;
37069;SDS011;22984;48.862;9.320;2022-08-18T12:21:44;4.13;;;3.85;;
37069;SDS011;22984;48.862;9.320;2022-08-18T12:24:20;4.45;;;4.25;;
37069;SDS011;22984;48.862;9.320;2022-08-18T12:26:48;4.28;;;4.07;;
37069;SDS011;22984;48.862;9.320;2022-08-18T12:29:14;4.45;;;4.15;;
37069;SDS011;22984;48.862;9.320;2022-08-18T12:31:42;3.85;;;3.65;;
37069;SDS011;22984;48.862;9.320;2022-08-18T12:34:08;4.28;;;3.97;;
37069;SDS011;22984;48.862;9.320;2022-08-18T12:36:35;3.88;;;3.67;;
37069;SDS011;22984;48.862;9.320;2022-08-18T12:39:01;4.13;;;3.93;;
37069;SDS011;22984;48.862;9.320;2022-08-18T12:41:27;3.83;;;3.63;;
37069;SDS011;22984;48.862;9.320;2022-08-18T12:43:53;4.22;;;3.92;;
37069;SDS011;22984;48.862;9.320;2022-08-18T12:46:19;4.25;;;4.05;;
37069;SDS011;22984;48.862;9.320;2022-08-18T12:48:46;4.07;;;3.78;;
37069;SDS011;22984;48.862;9.320;2022-08-18T12:51:12;3.85;;;3.60;;
37069;SDS011;22984;48.862;9.320;2022-08-18T12:53:38;4.13;;;3.92;;
37069;SDS011;22984;48.862;9.320;2022-08-18T12:56:05;4.20;;;4.00;;
37069;SDS011;22984;48.862;9.320;2022-08-18T12:58:32;4.20;;;4.00;;
37069;SDS011;22984;48.862;9.320;2022-08-18T13:00:58;3.78;;;3.47;;
37069;SDS011;22984;48.862;9.320;2022-08-18T13:03:24;3.13;;;2.92;;
37069;SDS011;22984;48.862;9.320;2022-08-18T13:05:50;2.88;;;2.67;;
37069;SDS011;22984;48.862;9.320;2022-08-18T13:08:18;3.90;;;3.60;;
37069;SDS011;22984;48.862;9.320;2022-08-18T13:10:45;2.78;;;2.67;;
37069;SDS011;22984;48.862;9.320;2022-08-18T13:13:15;3.10;;;3.00;;
37069;SDS011;22984;48.862;9.320;2022-08-18T13:15:42;3.23;;;3.10;;
37069;SDS011;22984;48.862;9.320;2022-08-18T13:18:08;2.65;;;2.55;;
37069;SDS011;22984;48.862;9.320;2022-08-18T13:20:35;2.90;;;2.80;;
37069;SDS011;22984;48.862;9.320;2022-08-18T13:23:01;3.37;;;3.17;;
37069;SDS011;22984;48.862;9.320;2022-08-18T13:25:27;3.63;;;3.33;;
37069;SDS011;22984;48.862;9.320;2022-08-18T13:27:53;3.10;;;2.97;;
37069;SDS011;22984;48.862;9.320;2022-08-18T13:30:20;3.22;;;3.03;;
37069;SDS011;22984;48.862;9.320;2022-08-18T13:32:46;3.60;;;3.40;;
37069;SDS011;22984;48.862;9.320;2022-08-18T13:35:13;3.42;;;3.22;;
37069;SDS011;22984;48.862;9.320;2022-08-18T13:37:39;3.13;;;3.00;;
37069;SDS011;22984;48.862;9.320;2022-08-18T13:40:06;3.50;;;3.30;;
37069;SDS011;22984;48.862;9.320;2022-08-18T13:42:39;3.47;;;3.30;;
37069;SDS011;22984;48.862;9.320;2022-08-18T13:45:05;3.53;;;3.33;;
37069;SDS011;22984;48.862;9.320;2022-08-18T13:47:31;2.80;;;2.70;;
37069;SDS011;22984;48.862;9.320;2022-08-18T13:49:58;3.10;;;2.95;;
37069;SDS011;22984;48.862;9.320;2022-08-18T13:52:27;3.33;;;3.03;;
37069;SDS011;22984;48.862;9.320;2022-08-18T13:54:53;3.35;;;3.15;;
37069;SDS011;22984;48.862;9.320;2022-08-18T13:57:19;2.90;;;2.70;;
37069;SDS011;22984;48.862;9.320;2022-08-18T13:59:45;3.65;;;2.63;;
37069;SDS011;22984;48.862;9.320;2022-08-18T14:02:11;2.60;;;2.50;;
37069;SDS011;22984;48.862;9.320;2022-08-18T14:04:37;2.92;;;2.72;;
37069;SDS011;22984;48.862;9.320;2022-08-18T14:07:04;2.55;;;2.45;;
37069;SDS011;22984;48.862;9.320;2022-08-18T14:09:33;2.80;;;2.70;;
37069;SDS011;22984;48.862;9.320;2022-08-18T14:11:59;2.63;;;2.53;;
37069;SDS011;22984;48.862;9.320;2022-08-18T14:14:25;3.15;;;2.95;;
37069;SDS011;22984;48.862;9.320;2022-08-18T14:16:51;2.80;;;2.70;;
37069;SDS011;22984;48.862;9.320;2022-08-18T14:19:17;3.00;;;2.80;;
37069;SDS011;22984;48.862;9.320;2022-08-18T14:22:02;3.40;;;3.20;;
37069;SDS011;22984;48.862;9.320;2022-08-18T14:24:47;2.35;;;2.25;;
37069;SDS011;22984;48.862;9.320;2022-08-18T14:27:33;2.88;;;2.58;;
37069;SDS011;22984;48.862;9.320;2022-08-18T14:29:59;3.22;;;3.03;;
37069;SDS011;22984;48.862;9.320;2022-08-18T14:32:26;3.15;;;3.00;;
37069;SDS011;22984;48.862;9.320;2022-08-18T14:34:56;3.25;;;3.10;;
37069;SDS011;22984;48.862;9.320;2022-08-18T14:37:22;3.23;;;3.03;;
37069;SDS011;22984;48.862;9.320;2022-08-18T14:39:49;3.28;;;2.97;;
37069;SDS011;22984;48.862;9.320;2022-08-18T14:42:16;3.10;;;3.00;;
37069;SDS011;22984;48.862;9.320;2022-08-18T14:44:43;3.28;;;3.13;;
37069;SDS011;22984;48.862;9.320;2022-08-18T14:47:10;3.63;;;3.42;;
37069;SDS011;22984;48.862;9.320;2022-08-18T14:49:36;3.65;;;3.50;;
37069;SDS011;22984;48.862;9.320;2022-08-18T14:52:03;3.92;;;3.72;;
37069;SDS011;22984;48.862;9.320;2022-08-18T14:54:30;3.67;;;3.47;;
37069;SDS011;22984;48.862;9.320;2022-08-18T14:56:57;4.07;;;3.88;;
37069;SDS011;22984;48.862;9.320;2022-08-18T14:59:24;3.90;;;3.70;;
37069;SDS011;22984;48.862;9.320;2022-08-18T15:01:52;4.03;;;3.67;;
37069;SDS011;22984;48.862;9.320;2022-08-18T15:04:18;3.90;;;3.70;;
37069;SDS011;22984;48.862;9.320;2022-08-18T15:06:44;4.05;;;3.80;;
37069;SDS011;22984;48.862;9.320;2022-08-18T15:09:10;4.00;;;3.80;;
37069;SDS011;22984;48.862;9.320;2022-08-18T15:11:36;3.80;;;3.60;;
37069;SDS011;22984;48.862;9.320;2022-08-18T15:14:02;4.20;;;4.00;;
37069;SDS011;22984;48.862;9.320;2022-08-18T15:16:29;4.25;;;3.95;;
37069;SDS011;22984;48.862;9.320;2022-08-18T15:18:58;3.70;;;3.50;;
37069;SDS011;22984;48.862;9.320;2022-08-18T15:21:25;4.00;;;3.80;;
37069;SDS011;22984;48.862;9.320;2022-08-18T15:24:09;4.78;;;4.38;;
37069;SDS011;22984;48.862;9.320;2022-08-18T15:26:54;4.03;;;3.72;;
37069;SDS011;22984;48.862;9.320;2022-08-18T15:29:21;4.28;;;4.07;;
37069;SDS011;22984;48.862;9.320;2022-08-18T15:31:47;4.90;;;4.40;;
37069;SDS011;22984;48.862;9.320;2022-08-18T15:34:13;4.07;;;3.87;;
37069;SDS011;22984;48.862;9.320;2022-08-18T15:36:40;4.20;;;3.90;;
37069;SDS011;22984;48.862;9.320;2022-08-18T15:39:06;4.00;;;3.70;;
37069;SDS011;22984;48.862;9.320;2022-08-18T15:43:59;3.97;;;3.78;;
37069;SDS011;22984;48.862;9.320;2022-08-18T15:46:26;3.85;;;3.65;;
37069;SDS011;22984;48.862;9.320;2022-08-18T15:48:53;3.53;;;3.33;;
37069;SDS011;22984;48.862;9.320;2022-08-18T15:51:19;4.27;;;4.00;;
37069;SDS011;22984;48.862;9.320;2022-08-18T15:53:45;4.30;;;4.00;;
37069;SDS011;22984;48.862;9.320;2022-08-18T15:56:15;4.13;;;3.92;;
37069;SDS011;22984;48.862;9.320;2022-08-18T15:58:42;4.07;;;3.78;;
37069;SDS011;22984;48.862;9.320;2022-08-18T16:01:10;4.60;;;4.30;;
37069;SDS011;22984;48.862;9.320;2022-08-18T16:03:37;4.07;;;3.78;;
37069;SDS011;22984;48.862;9.320;2022-08-18T16:06:03;3.93;;;3.73;;
37069;SDS011;22984;48.862;9.320;2022-08-18T16:08:30;4.17;;;3.87;;
37069;SDS011;22984;48.862;9.320;2022-08-18T16:10:56;4.20;;;4.00;;
37069;SDS011;22984;48.862;9.320;2022-08-18T16:13:22;4.38;;;3.97;;
37069;SDS011;22984;48.862;9.320;2022-08-18T16:15:50;4.55;;;4.05;;
37069;SDS011;22984;48.862;9.320;2022-08-18T16:18:17;3.95;;;3.75;;
37069;SDS011;22984;48.862;9.320;2022-08-18T16:20:45;3.63;;;3.42;;
37069;SDS011;22984;48.862;9.320;2022-08-18T16:23:11;4.05;;;3.85;;
37069;SDS011;22984;48.862;9.320;2022-08-18T16:25:38;4.20;;;4.00;;
37069;SDS011;22984;48.862;9.320;2022-08-18T16:28:04;3.58;;;3.38;;
37069;SDS011;22984;48.862;9.320;2022-08-18T16:30:31;5.00;;;3.70;;
37069;SDS011;22984;48.862;9.320;2022-08-18T16:33:01;3.67;;;3.38;;
37069;SDS011;22984;48.862;9.320;2022-08-18T16:35:28;4.33;;;4.03;;
37069;SDS011;22984;48.862;9.320;2022-08-18T16:37:54;3.73;;;3.53;;
37069;SDS011;22984;48.862;9.320;2022-08-18T16:40:20;3.97;;;3.78;;
37069;SDS011;22984;48.862;9.320;2022-08-18T16:42:47;3.78;;;3.42;;
37069;SDS011;22984;48.862;9.320;2022-08-18T16:45:18;3.80;;;3.60;;
37069;SDS011;22984;48.862;9.320;2022-08-18T16:47:45;3.70;;;3.50;;
37069;SDS011;22984;48.862;9.320;2022-08-18T16:50:13;4.00;;;3.70;;
37069;SDS011;22984;48.862;9.320;2022-08-18T16:52:41;4.38;;;4.07;;
37069;SDS011;22984;48.862;9.320;2022-08-18T16:55:07;3.72;;;3.53;;
37069;SDS011;22984;48.862;9.320;2022-08-18T16:57:37;3.60;;;3.40;;
37069;SDS011;22984;48.862;9.320;2022-08-18T17:00:22;4.20;;;3.80;;
37069;SDS011;22984;48.862;9.320;2022-08-18T17:03:07;3.67;;;3.47;;
37069;SDS011;22984;48.862;9.320;2022-08-18T17:06:02;3.60;;;3.40;;
37069;SDS011;22984;48.862;9.320;2022-08-18T17:08:28;3.60;;;3.40;;
37069;SDS011;22984;48.862;9.320;2022-08-18T17:10:58;3.03;;;2.92;;
37069;SDS011;22984;48.862;9.320;2022-08-18T17:13:24;4.00;;;3.70;;
37069;SDS011;22984;48.862;9.320;2022-08-18T17:15:50;3.65;;;3.35;;
37069;SDS011;22984;48.862;9.320;2022-08-18T17:18:16;3.97;;;3.75;;
37069;SDS011;22984;48.862;9.320;2022-08-18T17:20:43;4.38;;;4.07;;
37069;SDS011;22984;48.862;9.320;2022-08-18T17:23:10;4.38;;;3.97;;